Time;durP1;ratioP1;P1;durP2;ratioP2;P2;SDS_P1;SDS_P2;PMS_P1;PMS_P2;Temp;Humidity;BMP_temperature;BMP_pressure;BME280_temperature;BME280_humidity;BME280_pressure;Samples;Min_cycle;Max_cycle;Signal;HPM_P1;HPM_P2
2023/02/25 00:00:18;;;;;;;4.43;2.00;;;7.90;59.20;;;;;;5020738;28;20232;-78
2023/02/25 00:02:45;;;;;;;5.15;1.58;;;7.90;59.30;;;;;;5024484;28;20068;-77
2023/02/25 00:05:11;;;;;;;3.45;1.83;;;7.90;59.30;;;;;;5023707;28;20052;-77
2023/02/25 00:07:39;;;;;;;2.80;1.67;;;7.80;59.20;;;;;;5021571;28;20546;-78
2023/02/25 00:10:06;;;;;;;4.30;1.67;;;7.80;59.20;;;;;;5020296;28;20028;-78
2023/02/25 00:12:32;;;;;;;3.38;1.52;;;7.80;59.20;;;;;;5023233;28;20029;-79
2023/02/25 00:14:58;;;;;;;6.18;2.17;;;7.70;59.10;;;;;;5018320;28;20034;-77
2023/02/25 00:17:24;;;;;;;3.22;1.92;;;7.70;59.00;;;;;;5024170;28;20047;-81
2023/02/25 00:19:50;;;;;;;3.80;2.10;;;7.60;58.90;;;;;;5021991;28;20093;-80
2023/02/25 00:22:16;;;;;;;5.07;2.10;;;7.60;58.90;;;;;;5020967;28;20511;-81
2023/02/25 00:24:42;;;;;;;5.88;1.80;;;7.60;59.50;;;;;;5007670;28;20072;-81
2023/02/25 00:27:09;;;;;;;4.15;1.90;;;7.60;59.00;;;;;;5022064;28;20116;-81
2023/02/25 00:29:34;;;;;;;5.00;2.17;;;7.60;59.00;;;;;;5020839;28;20029;-81
2023/02/25 00:32:01;;;;;;;5.43;1.83;;;7.50;58.80;;;;;;5020680;28;20471;-81
2023/02/25 00:34:27;;;;;;;2.92;2.03;;;7.50;58.90;;;;;;5019148;28;20037;-81
2023/02/25 00:36:55;;;;;;;3.97;1.88;;;7.50;58.90;;;;;;5038560;28;20036;-80
2023/02/25 00:39:22;;;;;;;4.50;2.05;;;7.40;58.70;;;;;;5019531;28;20056;-80
2023/02/25 00:41:48;;;;;;;4.97;2.03;;;7.40;58.70;;;;;;5038292;28;20049;-80
2023/02/25 00:44:14;;;;;;;5.43;2.25;;;7.40;58.70;;;;;;5021206;28;20091;-80
2023/02/25 00:46:40;;;;;;;2.88;1.67;;;7.40;58.70;;;;;;5021419;28;20097;-81
2023/02/25 00:49:08;;;;;;;3.80;2.00;;;7.30;58.50;;;;;;5022009;28;20029;-81
2023/02/25 00:51:34;;;;;;;7.78;2.53;;;7.30;58.60;;;;;;5022879;28;20040;-81
2023/02/25 00:54:00;;;;;;;4.35;1.98;;;7.30;58.60;;;;;;5037175;28;20037;-80
2023/02/25 00:56:26;;;;;;;3.03;1.67;;;7.30;58.70;;;;;;5013462;28;20385;-76
2023/02/25 00:58:52;;;;;;;4.60;2.15;;;7.20;58.50;;;;;;5015743;28;20068;-81
2023/02/25 01:01:26;;;;;;;4.00;1.80;;;7.20;58.50;;;;;;5034671;28;20087;-80
2023/02/25 01:03:56;;;;;;;4.95;1.98;;;7.10;58.40;;;;;;5038249;28;20392;-80
2023/02/25 01:06:24;;;;;;;6.03;2.20;;;7.20;58.60;;;;;;5012873;28;20251;-80
2023/02/25 01:08:50;;;;;;;6.05;2.03;;;7.10;58.50;;;;;;5011871;28;20129;-81
2023/02/25 01:11:27;;;;;;;3.60;2.13;;;7.00;58.30;;;;;;5023181;28;20112;-82
2023/02/25 01:13:56;;;;;;;4.20;1.63;;;7.00;58.30;;;;;;5022027;28;20041;-82
2023/02/25 01:16:24;;;;;;;4.47;2.03;;;7.00;58.30;;;;;;5020353;28;20029;-81
2023/02/25 01:18:52;;;;;;;5.97;1.77;;;7.00;58.30;;;;;;5021859;28;20044;-81
2023/02/25 01:21:20;;;;;;;4.13;2.17;;;7.00;58.40;;;;;;5022298;28;20107;-84
2023/02/25 01:23:56;;;;;;;3.17;1.90;;;7.00;58.40;;;;;;5014931;28;20037;-83
2023/02/25 01:26:22;;;;;;;5.43;2.00;;;6.90;58.30;;;;;;5037010;28;20061;-83
2023/02/25 01:28:48;;;;;;;3.92;1.80;;;6.90;58.30;;;;;;5021510;28;20112;-84
2023/02/25 01:31:18;;;;;;;5.78;2.05;;;6.90;58.30;;;;;;5034808;28;20033;-84
2023/02/25 01:33:45;;;;;;;7.70;2.58;;;6.80;58.10;;;;;;5020945;28;20051;-84
2023/02/25 01:36:11;;;;;;;2.15;1.63;;;6.90;58.30;;;;;;5037914;28;20033;-85
2023/02/25 01:38:37;;;;;;;5.43;2.20;;;6.80;58.10;;;;;;5037364;28;20052;-84
2023/02/25 01:41:03;;;;;;;3.78;2.20;;;6.80;58.10;;;;;;5036335;28;20037;-86
2023/02/25 01:43:29;;;;;;;3.92;1.98;;;6.80;58.10;;;;;;5021565;28;20037;-85
2023/02/25 01:45:55;;;;;;;3.40;1.80;;;6.70;58.00;;;;;;5022083;28;20029;-84
2023/02/25 01:48:29;;;;;;;5.82;2.35;;;6.70;58.00;;;;;;5037235;28;20077;-85
2023/02/25 01:50:56;;;;;;;;;;;6.70;58.10;;;;;;5037457;28;20489;-83
2023/02/25 01:53:26;;;;;;;5.20;2.38;;;6.70;58.10;;;;;;5017841;28;20036;-83
2023/02/25 01:55:56;;;;;;;5.18;2.30;;;6.60;57.80;;;;;;5034963;28;20038;-82
2023/02/25 01:58:22;;;;;;;5.82;2.80;;;6.60;58.40;;;;;;5034491;28;20030;-82
2023/02/25 02:00:54;;;;;;;4.78;2.80;;;6.60;57.90;;;;;;5002896;28;20145;-82
2023/02/25 02:03:24;;;;;;;3.50;2.20;;;6.60;57.90;;;;;;5037201;28;20038;-80
2023/02/25 02:06:07;;;;;;;6.95;3.25;;;6.50;57.80;;;;;;5020355;28;20033;-81
2023/02/25 02:08:34;;;;;;;5.28;3.05;;;6.60;58.00;;;;;;5019043;28;20040;-82
2023/02/25 02:11:01;;;;;;;6.05;2.92;;;6.60;58.00;;;;;;5019836;28;20038;-82
2023/02/25 02:13:32;;;;;;;6.32;2.97;;;6.50;57.80;;;;;;5032436;28;20115;-82
2023/02/25 02:16:34;;;;;;;5.35;2.40;;;6.50;57.80;;;;;;5037457;28;20037;-82
2023/02/25 02:19:40;;;;;;;7.03;2.58;;;6.40;57.70;;;;;;5016294;28;20486;-83
2023/02/25 02:22:24;;;;;;;6.32;3.30;;;6.50;57.90;;;;;;5008920;28;20105;-81
2023/02/25 02:24:57;;;;;;;8.55;3.25;;;6.40;57.70;;;;;;5035865;28;20053;-81
2023/02/25 02:27:38;;;;;;;6.05;3.20;;;6.40;57.80;;;;;;5022794;28;20080;-82
2023/02/25 02:30:16;;;;;;;4.32;2.65;;;6.40;57.80;;;;;;5017790;28;20041;-84
2023/02/25 02:33:01;;;;;;;4.70;2.60;;;6.40;57.80;;;;;;5039601;28;20450;-83
2023/02/25 02:35:38;;;;;;;9.18;2.92;;;6.30;57.70;;;;;;5021229;28;20120;-84
2023/02/25 02:38:17;;;;;;;3.35;2.30;;;6.30;57.70;;;;;;5019223;28;20025;-83
2023/02/25 02:41:13;;;;;;;6.90;3.20;;;6.30;57.70;;;;;;5024928;28;20384;-82
2023/02/25 02:44:01;;;;;;;6.55;2.60;;;6.30;57.70;;;;;;5022886;28;20085;-82
2023/02/25 02:46:44;;;;;;;6.47;2.75;;;6.30;57.80;;;;;;5025872;28;20061;-80
2023/02/25 02:49:16;;;;;;;7.90;2.78;;;6.30;57.80;;;;;;5044702;28;20107;-81
2023/02/25 02:51:56;;;;;;;6.53;2.50;;;6.20;57.60;;;;;;5028315;28;20033;-81
2023/02/25 02:54:26;;;;;;;3.55;2.45;;;6.20;57.60;;;;;;5040469;28;20038;-81
2023/02/25 02:56:55;;;;;;;4.07;2.38;;;6.20;57.70;;;;;;5021272;28;20120;-82
2023/02/25 02:59:31;;;;;;;5.22;3.13;;;6.20;57.70;;;;;;5035815;28;20048;-82
2023/02/25 03:02:07;;;;;;;5.72;2.30;;;6.20;57.70;;;;;;5025789;28;20038;-80
2023/02/25 03:04:36;;;;;;;6.18;2.58;;;6.20;57.70;;;;;;5026005;28;20065;-80
2023/02/25 03:07:09;;;;;;;4.60;1.73;;;6.20;57.80;;;;;;5029363;28;20041;-80
2023/02/25 03:09:38;;;;;;;3.53;2.17;;;6.20;57.70;;;;;;5023806;28;20424;-82
2023/02/25 03:12:07;;;;;;;4.65;2.47;;;6.10;57.60;;;;;;5029063;28;20325;-81
2023/02/25 03:14:36;;;;;;;3.33;2.05;;;6.10;57.60;;;;;;5023085;28;20029;-82
2023/02/25 03:17:15;;;;;;;4.40;2.13;;;6.20;57.80;;;;;;5021244;28;20052;-81
2023/02/25 03:19:53;;;;;;;5.43;1.98;;;6.10;57.60;;;;;;5028097;28;20051;-82
2023/02/25 03:22:26;;;;;;;4.65;2.05;;;6.10;57.70;;;;;;5042102;28;20037;-82
2023/02/25 03:25:09;;;;;;;5.35;2.30;;;6.10;57.70;;;;;;5025922;28;20540;-80
2023/02/25 03:27:41;;;;;;;;;;;6.10;58.30;;;;;;5020881;28;20037;-82
2023/02/25 03:30:13;;;;;;;3.53;1.90;;;6.10;57.70;;;;;;5014940;28;19909;-82
2023/02/25 03:32:45;;;;;;;3.20;1.83;;;6.00;57.50;;;;;;5029490;28;20047;-81
2023/02/25 03:35:13;;;;;;;3.40;2.13;;;6.00;57.60;;;;;;5028170;28;20040;-82
2023/02/25 03:37:42;;;;;;;5.63;2.38;;;6.00;57.60;;;;;;5024808;28;20034;-81
2023/02/25 03:40:13;;;;;;;6.43;1.65;;;6.00;57.70;;;;;;5027422;28;20033;-81
2023/02/25 03:43:01;;;;;;;4.70;2.00;;;5.90;57.60;;;;;;5016689;28;20046;-82
2023/02/25 03:45:30;;;;;;;4.72;1.55;;;5.80;57.40;;;;;;5044797;28;20088;-82
2023/02/25 03:47:58;;;;;;;3.97;2.00;;;5.90;57.60;;;;;;5028739;28;20049;-83
2023/02/25 03:50:37;;;;;;;4.18;1.90;;;5.80;57.40;;;;;;5025419;28;20426;-82
2023/02/25 03:53:08;;;;;;;3.75;1.85;;;5.80;57.60;;;;;;5023952;28;20033;-84
2023/02/25 03:55:56;;;;;;;3.78;2.20;;;5.80;57.60;;;;;;5023326;28;20556;-81
2023/02/25 03:58:23;;;;;;;4.03;1.90;;;5.70;57.40;;;;;;5021329;28;20061;-81
2023/02/25 04:00:55;;;;;;;4.25;1.85;;;5.70;57.50;;;;;;5041618;28;20342;-81
2023/02/25 04:03:23;;;;;;;3.50;1.75;;;5.70;57.50;;;;;;5025222;28;20502;-80
2023/02/25 04:05:49;;;;;;;3.42;1.90;;;5.70;57.50;;;;;;5027287;28;20022;-85
2023/02/25 04:08:15;;;;;;;2.45;1.48;;;5.70;57.50;;;;;;5028282;28;20033;-84
2023/02/25 04:10:43;;;;;;;4.57;2.00;;;5.70;57.60;;;;;;5024609;28;20303;-82
2023/02/25 04:13:11;;;;;;;2.58;1.52;;;5.70;57.60;;;;;;5041762;28;20037;-81
2023/02/25 04:15:37;;;;;;;3.78;1.75;;;5.60;57.50;;;;;;5010520;28;20386;-82
2023/02/25 04:18:03;;;;;;;4.90;1.85;;;5.60;57.50;;;;;;5019978;28;20030;-81
2023/02/25 04:20:29;;;;;;;3.10;1.85;;;5.60;57.50;;;;;;5014501;28;20441;-81
2023/02/25 04:22:55;;;;;;;4.03;2.20;;;5.50;57.30;;;;;;5020589;28;20490;-81
2023/02/25 04:25:21;;;;;;;5.22;2.65;;;5.60;57.60;;;;;;5026646;28;20034;-82
2023/02/25 04:27:47;;;;;;;3.95;1.88;;;5.50;57.40;;;;;;5040597;28;20551;-83
2023/02/25 04:30:14;;;;;;;4.30;2.13;;;5.50;57.50;;;;;;5024887;28;20025;-82
2023/02/25 04:32:40;;;;;;;2.88;1.85;;;5.40;57.30;;;;;;5027067;28;20635;-82
2023/02/25 04:35:10;;;;;;;4.72;2.30;;;5.40;57.30;;;;;;5027459;28;20030;-82
2023/02/25 04:37:37;;;;;;;3.53;1.55;;;5.40;57.30;;;;;;5026479;28;20036;-82
2023/02/25 04:40:13;;;;;;;4.85;2.00;;;5.40;57.40;;;;;;5024008;28;20495;-80
2023/02/25 04:42:40;;;;;;;4.10;1.90;;;5.30;57.20;;;;;;5026838;28;20049;-82
2023/02/25 04:45:08;;;;;;;6.18;2.33;;;5.30;57.80;;;;;;5042085;28;20115;-79
2023/02/25 04:47:34;;;;;;;5.97;1.73;;;5.30;57.30;;;;;;5024995;28;20048;-79
2023/02/25 04:50:00;;;;;;;6.55;2.47;;;5.30;57.30;;;;;;5042322;28;20022;-80
2023/02/25 04:52:27;;;;;;;4.80;1.67;;;5.30;57.40;;;;;;5026487;28;20549;-79
2023/02/25 04:54:53;;;;;;;6.40;1.80;;;5.20;57.20;;;;;;5024573;28;20048;-79
2023/02/25 04:57:19;;;;;;;5.32;1.75;;;5.20;57.20;;;;;;5026306;28;20021;-80
2023/02/25 04:59:45;;;;;;;4.18;2.85;;;5.10;57.10;;;;;;5018801;28;20021;-81
2023/02/25 05:02:11;;;;;;;3.90;2.35;;;5.10;57.10;;;;;;5025661;28;20072;-80
2023/02/25 05:04:38;;;;;;;3.58;1.92;;;5.10;57.20;;;;;;5023932;28;20503;-81
2023/02/25 05:07:05;;;;;;;6.28;2.40;;;5.10;57.10;;;;;;5019630;28;20037;-80
2023/02/25 05:09:31;;;;;;;4.45;2.58;;;5.10;57.20;;;;;;5025935;28;20748;-81
2023/02/25 05:11:58;;;;;;;6.47;1.98;;;5.10;57.20;;;;;;5031207;28;20580;-82
2023/02/25 05:14:23;;;;;;;4.05;1.90;;;5.10;57.20;;;;;;5024959;28;20412;-82
2023/02/25 05:16:50;;;;;;;3.65;2.10;;;5.10;57.20;;;;;;5025169;28;20037;-83
2023/02/25 05:19:18;;;;;;;5.22;2.50;;;5.10;57.20;;;;;;5026738;28;20810;-82
2023/02/25 05:21:44;;;;;;;5.25;2.40;;;5.10;57.20;;;;;;5023913;28;20064;-82
2023/02/25 05:24:11;;;;;;;4.50;2.10;;;5.10;57.20;;;;;;5025044;28;20080;-82
2023/02/25 05:26:37;;;;;;;3.67;1.75;;;5.00;57.00;;;;;;5024942;28;20030;-82
2023/02/25 05:29:03;;;;;;;4.30;2.38;;;5.00;57.00;;;;;;5008112;28;20083;-82
2023/02/25 05:31:29;;;;;;;3.22;2.10;;;5.00;57.10;;;;;;5024104;28;20025;-80
2023/02/25 05:33:55;;;;;;;5.95;2.08;;;5.00;57.10;;;;;;5026724;28;20043;-80
2023/02/25 05:36:21;;;;;;;8.07;2.30;;;5.00;57.10;;;;;;5021619;28;20038;-80
2023/02/25 05:38:48;;;;;;;5.95;2.13;;;5.00;57.10;;;;;;5040207;28;20029;-82
2023/02/25 05:41:15;;;;;;;3.17;1.92;;;5.00;57.10;;;;;;5039589;28;20378;-79
2023/02/25 05:43:41;;;;;;;3.05;1.88;;;5.00;57.10;;;;;;5037523;28;20045;-80
2023/02/25 05:46:10;;;;;;;4.28;2.13;;;5.00;57.20;;;;;;5024189;28;20037;-80
2023/02/25 05:48:38;;;;;;;4.60;2.20;;;4.90;57.00;;;;;;5019787;28;20095;-82
2023/02/25 05:51:07;;;;;;;6.47;2.58;;;5.00;57.20;;;;;;5020394;28;20033;-81
2023/02/25 05:53:33;;;;;;;3.63;2.08;;;5.00;57.20;;;;;;5022976;28;20034;-80
2023/02/25 05:56:04;;;;;;;4.57;1.70;;;5.00;57.20;;;;;;5038535;28;20029;-81
2023/02/25 05:58:30;;;;;;;3.28;2.00;;;5.00;57.20;;;;;;5039622;28;20068;-82
2023/02/25 06:00:56;;;;;;;3.75;1.98;;;5.00;57.20;;;;;;5020633;28;20064;-82
2023/02/25 06:03:22;;;;;;;6.20;2.28;;;5.00;57.20;;;;;;5025673;28;20072;-79
2023/02/25 06:05:48;;;;;;;6.53;2.00;;;5.00;57.20;;;;;;5041065;28;20076;-81
2023/02/25 06:08:14;;;;;;;5.85;2.28;;;5.00;57.20;;;;;;5026260;28;20132;-80
2023/02/25 06:10:40;;;;;;;3.88;2.10;;;5.00;57.10;;;;;;5040530;28;20443;-79
2023/02/25 06:13:10;;;;;;;3.75;2.35;;;5.00;57.20;;;;;;5024068;28;20314;-80
2023/02/25 06:15:40;;;;;;;6.88;2.08;;;5.00;57.10;;;;;;5042025;28;20494;-82
2023/02/25 06:18:06;;;;;;;6.40;2.20;;;5.00;57.10;;;;;;5026149;28;20049;-82
2023/02/25 06:20:34;;;;;;;4.85;1.95;;;5.00;57.20;;;;;;5025401;28;20116;-81
2023/02/25 06:23:03;;;;;;;4.80;2.10;;;5.00;57.20;;;;;;5022359;28;20053;-79
2023/02/25 06:25:31;;;;;;;6.65;2.30;;;5.00;57.20;;;;;;5025575;28;20424;-81
2023/02/25 06:28:00;;;;;;;3.35;1.92;;;5.00;57.20;;;;;;5023716;28;20045;-79
2023/02/25 06:30:28;;;;;;;5.80;2.33;;;5.00;57.20;;;;;;5030764;28;20150;-80
2023/02/25 06:32:54;;;;;;;3.70;1.95;;;5.00;57.20;;;;;;5040054;28;20041;-79
2023/02/25 06:35:22;;;;;;;4.72;1.80;;;5.00;57.20;;;;;;5025607;28;20196;-82
2023/02/25 06:37:55;;;;;;;6.50;2.72;;;5.00;57.80;;;;;;5017382;28;20037;-79
2023/02/25 06:40:22;;;;;;;3.70;2.60;;;5.00;57.20;;;;;;5025469;28;20021;-81
2023/02/25 06:42:48;;;;;;;5.82;1.90;;;5.00;57.20;;;;;;5039533;28;20038;-81
2023/02/25 06:45:14;;;;;;;4.75;1.90;;;5.00;57.10;;;;;;5023020;28;20082;-80
2023/02/25 06:47:40;;;;;;;3.42;2.08;;;5.00;57.10;;;;;;5023155;28;20477;-82
2023/02/25 06:50:07;;;;;;;5.93;2.78;;;5.00;57.10;;;;;;5024805;28;20094;-81
2023/02/25 06:52:33;;;;;;;5.55;2.35;;;5.00;57.10;;;;;;5020594;28;20029;-80
2023/02/25 06:54:59;;;;;;;5.07;1.60;;;5.00;57.10;;;;;;5025576;28;20500;-87
2023/02/25 06:57:25;;;;;;;4.18;2.13;;;5.10;57.20;;;;;;5025610;28;20032;-84
2023/02/25 06:59:52;;;;;;;3.67;2.20;;;5.10;57.20;;;;;;5017470;28;20087;-83
2023/02/25 07:02:18;;;;;;;4.75;2.25;;;5.10;57.20;;;;;;5022226;28;20116;-83
2023/02/25 07:04:44;;;;;;;9.50;1.85;;;5.10;57.10;;;;;;5018933;28;20060;-83
2023/02/25 07:07:10;;;;;;;5.47;2.25;;;5.10;57.10;;;;;;5024073;28;20504;-82
2023/02/25 07:09:36;;;;;;;4.72;2.20;;;5.20;57.20;;;;;;5034823;28;20044;-79
2023/02/25 07:12:02;;;;;;;5.07;1.90;;;5.10;57.10;;;;;;5020909;28;20428;-84
2023/02/25 07:14:28;;;;;;;7.50;2.42;;;5.10;57.00;;;;;;5021575;28;20121;-85
2023/02/25 07:16:54;;;;;;;4.32;1.70;;;5.20;57.20;;;;;;5018501;28;20123;-83
2023/02/25 07:19:20;;;;;;;7.78;2.78;;;5.20;57.20;;;;;;5037803;28;20053;-81
2023/02/25 07:21:46;;;;;;;6.60;1.48;;;5.20;57.20;;;;;;5021866;28;20045;-78
2023/02/25 07:24:12;;;;;;;6.68;1.83;;;5.30;57.80;;;;;;5019999;28;20037;-78
2023/02/25 07:26:38;;;;;;;8.80;2.92;;;5.40;58.00;;;;;;5019645;28;20316;-77
2023/02/25 07:29:05;;;;;;;3.50;1.60;;;5.50;57.90;;;;;;5020889;28;20143;-89
2023/02/25 07:31:31;;;;;;;7.57;2.83;;;5.50;57.80;;;;;;5020817;28;20434;-79
2023/02/25 07:34:03;;;;;;;6.32;2.40;;;5.70;58.90;;;;;;5015350;28;20347;-78
2023/02/25 07:36:34;;;;;;;11.05;2.08;;;6.00;59.60;;;;;;5037191;28;20419;-79
2023/02/25 07:39:03;;;;;;;6.38;2.00;;;6.30;60.10;;;;;;5034638;28;20065;-78
2023/02/25 07:41:29;;;;;;;7.05;2.70;;;6.60;60.40;;;;;;5016671;28;20598;-77
2023/02/25 07:44:01;;;;;;;9.27;2.50;;;6.90;60.70;;;;;;5021213;28;20037;-77
2023/02/25 07:46:28;;;;;;;5.60;2.00;;;7.20;60.90;;;;;;5021521;28;20111;-79
2023/02/25 07:48:54;;;;;;;7.45;2.22;;;7.40;61.10;;;;;;5021583;28;20041;-77
2023/02/25 07:51:22;;;;;;;9.27;3.25;;;7.60;61.20;;;;;;5021168;28;20025;-77
2023/02/25 07:53:49;;;;;;;5.13;1.63;;;7.80;61.40;;;;;;5020671;28;20032;-77
2023/02/25 07:56:17;;;;;;;4.85;2.22;;;7.90;61.50;;;;;;5019173;28;20075;-77
2023/02/25 07:58:43;;;;;;;4.38;2.17;;;8.10;61.70;;;;;;5016496;28;20029;-78
2023/02/25 08:01:23;;;;;;;6.95;1.85;;;8.20;61.80;;;;;;5020622;28;20048;-77
2023/02/25 08:03:53;;;;;;;5.18;1.50;;;8.30;62.00;;;;;;5021879;28;20052;-77
2023/02/25 08:06:19;;;;;;;7.13;1.70;;;8.40;62.00;;;;;;5019896;28;20473;-76
2023/02/25 08:08:46;;;;;;;4.90;1.55;;;8.50;62.10;;;;;;5018140;28;20087;-77
2023/02/25 08:11:13;;;;;;;4.10;1.48;;;8.60;62.20;;;;;;5019733;28;20146;-77
2023/02/25 08:13:40;;;;;;;4.30;1.52;;;8.70;62.30;;;;;;5017765;28;20032;-77
2023/02/25 08:16:12;;;;;;;7.50;1.67;;;8.80;62.30;;;;;;5020293;28;20033;-78
2023/02/25 08:18:41;;;;;;;5.28;1.35;;;8.80;62.30;;;;;;5019472;28;20029;-78
2023/02/25 08:21:09;;;;;;;5.13;1.58;;;8.90;62.50;;;;;;5020524;28;20520;-78
2023/02/25 08:23:35;;;;;;;6.38;1.58;;;8.90;62.40;;;;;;5020150;28;20398;-78
2023/02/25 08:26:01;;;;;;;4.93;1.88;;;9.00;62.50;;;;;;5020914;28;20047;-79
2023/02/25 08:28:30;;;;;;;9.90;1.75;;;9.10;62.60;;;;;;5011231;28;20128;-79
2023/02/25 08:30:56;;;;;;;8.27;1.70;;;9.10;62.60;;;;;;5020615;28;20045;-77
2023/02/25 08:33:23;;;;;;;7.97;2.45;;;9.20;62.70;;;;;;5020597;28;20033;-76
2023/02/25 08:35:50;;;;;;;10.88;2.35;;;9.20;62.70;;;;;;5009042;28;20393;-77
2023/02/25 08:38:16;;;;;;;9.15;2.63;;;9.20;62.70;;;;;;5020370;28;20045;-78
2023/02/25 08:40:43;;;;;;;14.07;2.25;;;9.30;62.80;;;;;;5019328;28;20033;-76
2023/02/25 08:43:09;;;;;;;11.50;2.33;;;9.30;62.70;;;;;;5019427;28;20234;-76
2023/02/25 08:45:40;;;;;;;8.75;1.70;;;9.40;62.80;;;;;;5016239;28;20037;-78
2023/02/25 08:48:07;;;;;;;5.05;2.05;;;9.50;62.90;;;;;;5035157;28;20388;-81
2023/02/25 08:50:33;;;;;;;5.55;2.03;;;9.60;63.00;;;;;;5019282;28;20029;-80
2023/02/25 08:52:58;;;;;;;10.45;2.15;;;9.70;62.90;;;;;;5017571;28;20773;-79
2023/02/25 08:55:24;;;;;;;7.25;2.05;;;9.80;62.80;;;;;;5018358;28;20032;-77
2023/02/25 08:57:51;;;;;;;6.68;1.90;;;9.80;62.60;;;;;;5016582;28;20393;-77
2023/02/25 09:00:19;;;;;;;7.60;2.28;;;9.80;62.40;;;;;;5015469;28;20033;-77
2023/02/25 09:02:46;;;;;;;7.20;1.98;;;9.80;62.30;;;;;;5020317;28;20131;-81
2023/02/25 09:05:12;;;;;;;10.50;3.20;;;9.80;62.00;;;;;;5019075;28;20040;-79
2023/02/25 09:07:38;;;;;;;5.30;2.42;;;9.80;61.90;;;;;;5017332;28;20087;-77
2023/02/25 09:10:06;;;;;;;6.10;2.40;;;9.70;61.60;;;;;;5018535;28;20037;-77
2023/02/25 09:12:32;;;;;;;7.00;2.55;;;9.70;61.40;;;;;;5020054;28;20060;-77
2023/02/25 09:14:58;;;;;;;8.80;2.60;;;9.70;61.30;;;;;;5018201;28;20033;-76
2023/02/25 09:17:24;;;;;;;6.55;1.90;;;9.60;61.00;;;;;;5010309;28;20271;-75
2023/02/25 09:19:50;;;;;;;7.82;3.20;;;9.60;61.40;;;;;;5019009;28;20048;-78
2023/02/25 09:22:18;;;;;;;5.63;1.80;;;9.70;60.90;;;;;;5014862;28;20471;-77
2023/02/25 09:24:45;;;;;;;8.15;2.70;;;9.70;60.70;;;;;;5030029;28;20026;-76
2023/02/25 09:27:11;;;;;;;9.75;3.00;;;9.70;60.40;;;;;;5020071;28;20390;-78
2023/02/25 09:29:38;;;;;;;5.05;1.80;;;9.80;60.30;;;;;;5006321;28;20242;-79
2023/02/25 09:32:05;;;;;;;8.15;3.22;;;9.80;60.00;;;;;;5018260;28;20048;-78
2023/02/25 09:34:32;;;;;;;8.90;2.53;;;9.80;59.80;;;;;;5015356;28;20060;-78
2023/02/25 09:37:00;;;;;;;8.77;1.95;;;9.80;59.60;;;;;;5019401;28;20473;-78
2023/02/25 09:39:26;;;;;;;6.03;2.22;;;9.80;59.50;;;;;;5017663;28;20847;-77
2023/02/25 09:41:59;;;;;;;5.53;2.05;;;9.70;59.10;;;;;;5015718;28;20304;-78
2023/02/25 09:44:29;;;;;;;;;;;9.70;59.00;;;;;;5018050;28;20080;-75
2023/02/25 09:47:04;;;;;;;5.70;1.88;;;9.70;59.00;;;;;;5011674;28;19921;-79
2023/02/25 09:49:38;;;;;;;5.55;2.22;;;9.70;59.10;;;;;;5034595;28;20037;-79
2023/02/25 09:52:21;;;;;;;7.38;2.30;;;9.70;58.90;;;;;;5019789;28;20052;-78
2023/02/25 09:54:51;;;;;;;;;;;9.60;58.50;;;;;;5013517;28;20416;-79
2023/02/25 09:57:20;;;;;;;7.57;2.30;;;9.60;58.60;;;;;;5019188;28;19913;-78
2023/02/25 09:59:47;;;;;;;5.70;1.90;;;9.70;58.90;;;;;;5011404;28;20403;-78
2023/02/25 10:02:37;;;;;;;7.13;2.35;;;9.70;58.60;;;;;;5016669;28;20052;-79
2023/02/25 10:05:18;;;;;;;3.85;2.13;;;9.80;58.20;;;;;;5019455;28;20100;-81
2023/02/25 10:08:06;;;;;;;4.72;2.35;;;9.90;58.10;;;;;;5009241;28;20135;-82
2023/02/25 10:11:00;;;;;;;6.50;1.73;;;10.00;58.10;;;;;;5015798;28;20030;-79
2023/02/25 10:13:26;;;;;;;7.55;2.25;;;10.10;57.80;;;;;;5018383;28;20396;-79
2023/02/25 10:16:17;;;;;;;6.53;1.77;;;10.10;57.60;;;;;;5019469;28;20037;-78
2023/02/25 10:19:00;;;;;;;4.65;1.75;;;10.20;57.50;;;;;;5016729;28;20060;-77
2023/02/25 10:21:37;;;;;;;7.28;2.10;;;10.20;57.30;;;;;;5018806;28;20080;-78
2023/02/25 10:24:19;;;;;;;3.95;1.52;;;10.30;57.20;;;;;;5020013;28;20044;-79
2023/02/25 10:26:58;;;;;;;6.95;1.98;;;10.40;57.20;;;;;;5016136;28;20461;-77
2023/02/25 10:29:37;;;;;;;6.45;2.13;;;10.40;57.00;;;;;;5017274;28;20128;-77
2023/02/25 10:32:23;;;;;;;6.72;1.90;;;10.50;57.00;;;;;;5020085;28;20166;-79
2023/02/25 10:34:56;;;;;;;10.35;2.83;;;10.60;56.80;;;;;;5016368;28;20041;-78
2023/02/25 10:37:39;;;;;;;10.85;2.72;;;10.70;56.80;;;;;;5035066;28;20036;-77
2023/02/25 10:40:12;;;;;;;7.85;2.20;;;10.80;56.40;;;;;;5016799;28;20099;-79
2023/02/25 10:42:47;;;;;;;7.50;2.55;;;10.90;56.40;;;;;;5036502;28;20627;-79
2023/02/25 10:45:20;;;;;;;6.28;2.50;;;11.00;56.30;;;;;;5022015;28;20029;-78
2023/02/25 10:47:53;;;;;;;4.72;1.70;;;11.10;56.00;;;;;;5015388;28;20884;-78
2023/02/25 10:50:23;;;;;;;3.90;1.45;;;11.30;56.10;;;;;;5034652;28;20029;-78
2023/02/25 10:52:55;;;;;;;7.03;1.58;;;11.40;55.90;;;;;;5037421;28;20567;-78
2023/02/25 10:55:26;;;;;;;6.78;2.28;;;11.60;55.90;;;;;;5022072;28;20046;-79
2023/02/25 10:57:52;;;;;;;2.72;1.48;;;11.60;55.60;;;;;;5019430;28;20622;-79
2023/02/25 11:00:25;;;;;;;3.70;1.58;;;11.70;55.60;;;;;;5019113;28;20038;-79
2023/02/25 11:02:51;;;;;;;9.98;2.17;;;11.80;55.40;;;;;;5017352;28;20049;-76
2023/02/25 11:05:39;;;;;;;4.10;2.05;;;11.90;55.40;;;;;;5022784;28;20059;-76
2023/02/25 11:08:24;;;;;;;4.32;1.65;;;12.00;55.00;;;;;;5017992;28;20029;-75
2023/02/25 11:11:05;;;;;;;5.35;1.83;;;12.10;54.90;;;;;;5009291;28;20057;-75
2023/02/25 11:13:34;;;;;;;7.63;2.53;;;12.10;54.80;;;;;;5020841;28;20118;-75
2023/02/25 11:16:06;;;;;;;5.90;1.90;;;12.30;55.00;;;;;;5019145;28;20040;-77
2023/02/25 11:18:33;;;;;;;7.53;1.85;;;12.30;54.60;;;;;;5018310;28;20029;-77
2023/02/25 11:21:01;;;;;;;5.25;1.60;;;12.40;54.50;;;;;;5015156;28;20144;-77
2023/02/25 11:23:38;;;;;;;7.78;1.98;;;12.40;54.20;;;;;;5033811;28;20045;-77
2023/02/25 11:26:05;;;;;;;7.10;1.95;;;12.50;54.00;;;;;;5022416;28;20485;-77
2023/02/25 11:28:43;;;;;;;7.60;2.00;;;12.60;54.00;;;;;;5016058;28;20037;-78
2023/02/25 11:31:20;;;;;;;6.85;2.05;;;12.70;53.80;;;;;;5020950;28;20259;-77
2023/02/25 11:33:59;;;;;;;8.50;1.73;;;12.70;53.50;;;;;;5017830;28;20124;-78
2023/02/25 11:36:38;;;;;;;5.00;3.00;;;12.80;53.50;;;;;;5037236;28;20072;-77
2023/02/25 11:39:23;;;;;;;7.38;2.75;;;12.90;53.50;;;;;;5011424;28;20549;-79
2023/02/25 11:41:55;;;;;;;8.15;1.83;;;12.90;53.20;;;;;;5022630;28;20081;-78
2023/02/25 11:44:23;;;;;;;10.32;2.65;;;13.00;53.40;;;;;;5016191;28;20055;-78
2023/02/25 11:46:57;;;;;;;5.78;2.03;;;13.00;53.30;;;;;;5021621;28;20124;-76
2023/02/25 11:49:29;;;;;;;6.60;2.47;;;13.10;53.10;;;;;;5021558;28;20041;-77
2023/02/25 11:52:30;;;;;;;5.30;1.77;;;13.20;53.10;;;;;;5019641;28;20316;-80
2023/02/25 11:55:11;;;;;;;7.20;2.55;;;13.20;52.40;;;;;;5017126;28;20056;-80
2023/02/25 11:57:43;;;;;;;5.50;1.90;;;13.30;52.70;;;;;;5032588;28;20077;-78
2023/02/25 12:00:37;;;;;;;5.90;1.80;;;13.30;52.50;;;;;;5013143;28;20030;-78
2023/02/25 12:03:14;;;;;;;7.53;2.42;;;13.30;52.30;;;;;;5020521;28;20088;-79
2023/02/25 12:05:57;;;;;;;5.63;1.60;;;13.30;52.10;;;;;;5016465;28;20034;-78
2023/02/25 12:08:39;;;;;;;12.23;2.70;;;13.30;52.10;;;;;;5019085;28;20079;-78
2023/02/25 12:11:04;;;;;;;6.38;1.70;;;13.30;52.10;;;;;;5016104;28;20038;-74
2023/02/25 12:13:55;;;;;;;9.02;2.75;;;13.40;52.20;;;;;;5018623;28;20033;-78
2023/02/25 12:17:05;;;;;;;7.80;2.92;;;13.40;51.80;;;;;;5021733;28;20049;-78
2023/02/25 12:19:45;;;;;;;7.25;2.20;;;13.40;51.60;;;;;;5017719;28;20064;-78
2023/02/25 12:22:33;;;;;;;9.45;2.50;;;13.50;51.90;;;;;;5036333;28;20076;-78
2023/02/25 12:25:11;;;;;;;6.30;1.80;;;13.60;51.90;;;;;;5012740;28;20047;-77
2023/02/25 12:27:46;;;;;;;9.00;3.47;;;13.60;51.70;;;;;;5021754;28;20406;-76
2023/02/25 12:30:24;;;;;;;17.98;3.80;;;13.70;51.60;;;;;;5016534;28;20033;-76
2023/02/25 12:33:20;;;;;;;8.50;2.45;;;13.70;51.00;;;;;;5012320;28;20046;-76
2023/02/25 12:36:05;;;;;;;10.25;2.17;;;13.60;50.40;;;;;;5015654;28;20076;-77
2023/02/25 12:38:52;;;;;;;6.80;2.17;;;13.70;50.60;;;;;;5021301;28;20402;-77
2023/02/25 12:41:36;;;;;;;8.65;2.28;;;13.70;50.30;;;;;;5036053;28;20030;-77
2023/02/25 12:44:27;;;;;;;5.13;2.17;;;13.60;49.90;;;;;;5018547;28;20041;-77
2023/02/25 12:47:38;;;;;;;6.15;2.20;;;13.60;49.80;;;;;;5003220;28;20073;-77
2023/02/25 12:50:26;;;;;;;7.60;2.25;;;13.70;49.90;;;;;;5016605;28;20602;-77
2023/02/25 12:53:15;;;;;;;7.03;2.63;;;13.70;49.80;;;;;;5033369;28;20108;-77
2023/02/25 12:55:56;;;;;;;6.57;2.53;;;13.80;50.10;;;;;;5033057;28;20087;-79
2023/02/25 12:58:34;;;;;;;7.35;1.70;;;14.00;50.00;;;;;;5012774;28;20559;-82
2023/02/25 13:01:09;;;;;;;7.00;2.28;;;14.10;50.30;;;;;;5020784;28;20635;-80
2023/02/25 13:03:41;;;;;;;3.95;1.63;;;14.30;50.60;;;;;;5011326;28;20041;-80
2023/02/25 13:06:19;;;;;;;4.53;1.90;;;14.60;50.90;;;;;;5021247;28;20033;-81
2023/02/25 13:09:07;;;;;;;5.55;1.95;;;14.90;51.10;;;;;;5015773;28;20041;-80
2023/02/25 13:12:00;;;;;;;5.03;2.40;;;15.10;51.20;;;;;;5018951;28;20083;-76
2023/02/25 13:14:54;;;;;;;7.97;2.55;;;15.30;51.30;;;;;;5011475;28;20037;-78
2023/02/25 13:17:59;;;;;;;6.13;2.30;;;15.50;51.50;;;;;;5010279;28;20503;-77